Terminal Aerodrome Forecast
Issued by NWS Shreveport, LA

Home | Current Version | Previous Version | Text Only | Print | Product List | Glossary On
Versions: 1 2 3 4 5 6 7 8 9 10 11 12 13 14 15 16
000
FTUS44 KSHV 011300 AAA
TAFSHV
TAF AMD
KSHV 011350Z 0114/0212 18006KT P6SM SCT008 BKN050
      TEMPO 0114/0116 4SM BR BKN004 OVC008
     FM011800 16008KT P6SM VCSH BKN035 OVC060
     FM020000 15005KT P6SM SCT040
     FM020700 17007KT 6SM BR OVC025=

USA.gov is the U.S. government's official web portal to all federal, state and local government web resources and services.